Wishon, California
Current Conditions -  °F | °C
As of 12:53 AM on Thursday 23 Oct 2014 (Local Time) from KFAT Reporting Station
Scattered Clouds Scattered Clouds  
Wind Chill: 59°   Ceiling: Unl
Heat Index: 59°   Visibility: 10mi
Dew Point: 46°   Wind: 5mph
Humidity: 62%   Direction: 70°ENE
Pressure: 30.04"   Gusts: NA
Location:  37.27°N, 119.54°W
Report Text: KFAT 230753Z 07004KT 10SM SCT250 15/08 A3004 RMK AO2 SLP172 T01500078 402560111
Loading
Personal Weather Stations






























Interactive Weather Map New forecast layout! Learn more

10-Day Weather Forecast

Advertisements
Track Severe Weather on mobile